LVBQT XAGR-SADF
Flight info
| Callsign | LVBQT |
|---|---|
| Flight time | N/A |
| Altitude | 19000 |
| Route | UTRAX W24 SNT |
| Aircraft | B190/M-SDFGRY/S |
Departure
| Time | N/A |
|---|---|
| Airport | XAGR |
Arrival
| Time | 2026-04-11 23:28 |
|---|---|
| Airport | San Fernando Airport (SADF) |
| Time | Latitude | Longitude | Altitude | Speed | Heading |
|---|---|---|---|---|---|
| 2026-04-11 22:03 | -31.65547 | -64.39597 | 1777 ft | 0 kts | 341° |
| 2026-04-11 22:07 | -31.65544 | -64.39597 | 1777 ft | 1 kts | 15° |
| 2026-04-11 22:07 | -31.65552 | -64.39584 | 1777 ft | 0 kts | 184° |
| 2026-04-11 22:07 | -31.65554 | -64.39584 | 1777 ft | 0 kts | 186° |
| 2026-04-11 22:08 | -31.65557 | -64.39585 | 1776 ft | 1 kts | 202° |
| 2026-04-11 22:08 | -31.65573 | -64.39598 | 1776 ft | 2 kts | 214° |
| 2026-04-11 22:08 | -31.65591 | -64.39613 | 1775 ft | 3 kts | 215° |
| 2026-04-11 22:08 | -31.65606 | -64.39610 | 1775 ft | 2 kts | 139° |
| 2026-04-11 22:09 | -31.65622 | -64.39596 | 1775 ft | 3 kts | 114° |
| 2026-04-11 22:09 | -31.65633 | -64.39558 | 1774 ft | 5 kts | 110° |
| 2026-04-11 22:09 | -31.65653 | -64.39524 | 1774 ft | 3 kts | 136° |
| 2026-04-11 22:09 | -31.65654 | -64.39508 | 1774 ft | 0 kts | 10° |
| 2026-04-11 22:10 | -31.65653 | -64.39509 | 1774 ft | 0 kts | 345° |
| 2026-04-11 22:11 | -31.65648 | -64.39510 | 1774 ft | 3 kts | 348° |
| 2026-04-11 22:11 | -31.65358 | -64.39446 | 1784 ft | 105 kts | 9° |
| 2026-04-11 22:11 | -31.64395 | -64.39248 | 2186 ft | 159 kts | 17° |
| 2026-04-11 22:11 | -31.63508 | -64.38681 | 3337 ft | 146 kts | 43° |
| 2026-04-11 22:12 | -31.62918 | -64.37936 | 4204 ft | 147 kts | 54° |
| 2026-04-11 22:12 | -31.62370 | -64.36860 | 4862 ft | 160 kts | 71° |
| 2026-04-11 22:12 | -31.62176 | -64.35643 | 5759 ft | 151 kts | 98° |
| 2026-04-11 22:12 | -31.62420 | -64.34299 | 5944 ft | 199 kts | 105° |
| 2026-04-11 22:13 | -31.62884 | -64.32707 | 6418 ft | 215 kts | 104° |
| 2026-04-11 22:13 | -31.63340 | -64.30959 | 6817 ft | 229 kts | 103° |
| 2026-04-11 22:13 | -31.63807 | -64.29160 | 7325 ft | 232 kts | 103° |
| 2026-04-11 22:13 | -31.64285 | -64.27352 | 7871 ft | 234 kts | 103° |
| 2026-04-11 22:14 | -31.64770 | -64.25534 | 8420 ft | 235 kts | 103° |
| 2026-04-11 22:14 | -31.65259 | -64.23711 | 8967 ft | 236 kts | 103° |
| 2026-04-11 22:14 | -31.65751 | -64.21882 | 9514 ft | 237 kts | 103° |
| 2026-04-11 22:14 | -31.66247 | -64.20040 | 10061 ft | 238 kts | 104° |
| 2026-04-11 22:15 | -31.66751 | -64.18167 | 10618 ft | 243 kts | 104° |
| 2026-04-11 22:15 | -31.67259 | -64.16274 | 11168 ft | 247 kts | 104° |
| 2026-04-11 22:15 | -31.67776 | -64.14358 | 11715 ft | 250 kts | 105° |
| 2026-04-11 22:15 | -31.68303 | -64.12402 | 12266 ft | 253 kts | 105° |
| 2026-04-11 22:16 | -31.68839 | -64.10435 | 12816 ft | 254 kts | 105° |
| 2026-04-11 22:16 | -31.69380 | -64.08450 | 13369 ft | 255 kts | 105° |
| 2026-04-11 22:16 | -31.69920 | -64.06461 | 13921 ft | 255 kts | 105° |
| 2026-04-11 22:16 | -31.70459 | -64.04473 | 14473 ft | 255 kts | 105° |
| 2026-04-11 22:17 | -31.70997 | -64.02486 | 15023 ft | 256 kts | 105° |
| 2026-04-11 22:17 | -31.71533 | -64.00506 | 15559 ft | 251 kts | 105° |
| 2026-04-11 22:17 | -31.72057 | -63.98566 | 16049 ft | 247 kts | 105° |
| 2026-04-11 22:17 | -31.72572 | -63.96655 | 16544 ft | 244 kts | 105° |
| 2026-04-11 22:18 | -31.73082 | -63.94757 | 16997 ft | 243 kts | 105° |
| 2026-04-11 22:18 | -31.73585 | -63.92884 | 17443 ft | 242 kts | 105° |
| 2026-04-11 22:18 | -31.74091 | -63.90999 | 17894 ft | 240 kts | 105° |
| 2026-04-11 22:18 | -31.74592 | -63.89133 | 18342 ft | 239 kts | 105° |
| 2026-04-11 22:19 | -31.75087 | -63.87287 | 18789 ft | 238 kts | 105° |
| 2026-04-11 22:19 | -31.75582 | -63.85443 | 19237 ft | 236 kts | 105° |
| 2026-04-11 22:19 | -31.76071 | -63.83619 | 19684 ft | 234 kts | 105° |
| 2026-04-11 22:19 | -31.76559 | -63.81800 | 20133 ft | 233 kts | 105° |
| 2026-04-11 22:20 | -31.77044 | -63.79985 | 20583 ft | 231 kts | 105° |
| 2026-04-11 22:20 | -31.77517 | -63.78219 | 21026 ft | 229 kts | 105° |
| 2026-04-11 22:20 | -31.77999 | -63.76410 | 21253 ft | 240 kts | 105° |
| 2026-04-11 22:20 | -31.78513 | -63.74479 | 21338 ft | 253 kts | 105° |
| 2026-04-11 22:21 | -31.79054 | -63.72450 | 21342 ft | 266 kts | 105° |
| 2026-04-11 22:21 | -31.79620 | -63.70334 | 21389 ft | 275 kts | 106° |
| 2026-04-11 22:21 | -31.80198 | -63.68170 | 21333 ft | 285 kts | 106° |
| 2026-04-11 22:21 | -31.80800 | -63.65918 | 21320 ft | 291 kts | 106° |
| 2026-04-11 22:22 | -31.81412 | -63.63629 | 21270 ft | 296 kts | 106° |
| 2026-04-11 22:22 | -31.82036 | -63.61289 | 21263 ft | 298 kts | 106° |
| 2026-04-11 22:22 | -31.82660 | -63.58946 | 21241 ft | 301 kts | 106° |
| 2026-04-11 22:22 | -31.83288 | -63.56583 | 21096 ft | 306 kts | 106° |
| 2026-04-11 22:23 | -31.83933 | -63.54153 | 20979 ft | 309 kts | 106° |
| 2026-04-11 22:23 | -31.84565 | -63.51774 | 20962 ft | 307 kts | 106° |
| 2026-04-11 22:23 | -31.85201 | -63.49377 | 20960 ft | 306 kts | 106° |
| 2026-04-11 22:23 | -31.85834 | -63.46987 | 20960 ft | 304 kts | 106° |
| 2026-04-11 22:24 | -31.86466 | -63.44599 | 20961 ft | 304 kts | 106° |
| 2026-04-11 22:24 | -31.87088 | -63.42249 | 20961 ft | 303 kts | 106° |
| 2026-04-11 22:24 | -31.87712 | -63.39884 | 20961 ft | 303 kts | 106° |
| 2026-04-11 22:24 | -31.88360 | -63.37534 | 20950 ft | 304 kts | 112° |
| 2026-04-11 22:25 | -31.89455 | -63.35399 | 20967 ft | 303 kts | 126° |
| 2026-04-11 22:25 | -31.90704 | -63.33419 | 20957 ft | 303 kts | 128° |
| 2026-04-11 22:25 | -31.92000 | -63.31462 | 20956 ft | 302 kts | 129° |
| 2026-04-11 22:25 | -31.93294 | -63.29535 | 20956 ft | 302 kts | 129° |
| 2026-04-11 22:26 | -31.94600 | -63.27595 | 20956 ft | 302 kts | 129° |
| 2026-04-11 22:26 | -31.95903 | -63.25661 | 20956 ft | 302 kts | 129° |
| 2026-04-11 22:26 | -31.97206 | -63.23726 | 20956 ft | 302 kts | 129° |
| 2026-04-11 22:26 | -31.98502 | -63.21801 | 20955 ft | 300 kts | 129° |
| 2026-04-11 22:27 | -31.99805 | -63.19864 | 20955 ft | 297 kts | 129° |
| 2026-04-11 22:27 | -32.01079 | -63.17967 | 20955 ft | 295 kts | 129° |
| 2026-04-11 22:27 | -32.02341 | -63.16088 | 20956 ft | 294 kts | 129° |
| 2026-04-11 22:27 | -32.03605 | -63.14205 | 20956 ft | 293 kts | 129° |
| 2026-04-11 22:28 | -32.04865 | -63.12328 | 20957 ft | 292 kts | 129° |
| 2026-04-11 22:28 | -32.06122 | -63.10456 | 20957 ft | 292 kts | 129° |
| 2026-04-11 22:28 | -32.07386 | -63.08576 | 20957 ft | 292 kts | 129° |
| 2026-04-11 22:28 | -32.08657 | -63.06683 | 20958 ft | 292 kts | 129° |
| 2026-04-11 22:29 | -32.09904 | -63.04823 | 20956 ft | 288 kts | 128° |
| 2026-04-11 22:29 | -32.11136 | -63.02984 | 20951 ft | 285 kts | 128° |
| 2026-04-11 22:29 | -32.12361 | -63.01154 | 20951 ft | 283 kts | 128° |
| 2026-04-11 22:29 | -32.13568 | -62.99350 | 20952 ft | 282 kts | 128° |
| 2026-04-11 22:30 | -32.14780 | -62.97537 | 20952 ft | 281 kts | 128° |
| 2026-04-11 22:30 | -32.15990 | -62.95725 | 20957 ft | 284 kts | 127° |
| 2026-04-11 22:30 | -32.17237 | -62.93856 | 20958 ft | 290 kts | 127° |
| 2026-04-11 22:30 | -32.18487 | -62.91984 | 20957 ft | 295 kts | 127° |
| 2026-04-11 22:31 | -32.19767 | -62.90068 | 20957 ft | 298 kts | 127° |
| 2026-04-11 22:31 | -32.21059 | -62.88132 | 20956 ft | 301 kts | 126° |
| 2026-04-11 22:31 | -32.22358 | -62.86181 | 20956 ft | 303 kts | 126° |
| 2026-04-11 22:31 | -32.23661 | -62.84222 | 20955 ft | 304 kts | 126° |
| 2026-04-11 22:32 | -32.24953 | -62.82276 | 20955 ft | 305 kts | 126° |
| 2026-04-11 22:32 | -32.26263 | -62.80306 | 20955 ft | 305 kts | 126° |
| 2026-04-11 22:32 | -32.27580 | -62.78326 | 20955 ft | 306 kts | 126° |
| 2026-04-11 22:32 | -32.28894 | -62.76348 | 20956 ft | 306 kts | 126° |
| 2026-04-11 22:33 | -32.30194 | -62.74392 | 20956 ft | 306 kts | 126° |
| 2026-04-11 22:33 | -32.31507 | -62.72416 | 20956 ft | 306 kts | 126° |
| 2026-04-11 22:33 | -32.32820 | -62.70437 | 20956 ft | 306 kts | 126° |
| 2026-04-11 22:33 | -32.34129 | -62.68465 | 20956 ft | 306 kts | 126° |
| 2026-04-11 22:34 | -32.35450 | -62.66473 | 20956 ft | 307 kts | 126° |
| 2026-04-11 22:34 | -32.36768 | -62.64484 | 20957 ft | 307 kts | 126° |
| 2026-04-11 22:34 | -32.38084 | -62.62498 | 20958 ft | 307 kts | 126° |
| 2026-04-11 22:34 | -32.39382 | -62.60536 | 20960 ft | 307 kts | 126° |
| 2026-04-11 22:35 | -32.40693 | -62.58555 | 20962 ft | 307 kts | 126° |
| 2026-04-11 22:35 | -32.42012 | -62.56560 | 20965 ft | 307 kts | 126° |
| 2026-04-11 22:35 | -32.43322 | -62.54579 | 20967 ft | 307 kts | 126° |
| 2026-04-11 22:35 | -32.44633 | -62.52594 | 20970 ft | 307 kts | 126° |
| 2026-04-11 22:36 | -32.45956 | -62.50591 | 20972 ft | 307 kts | 126° |
| 2026-04-11 22:36 | -32.47252 | -62.48628 | 20975 ft | 307 kts | 126° |
| 2026-04-11 22:36 | -32.48577 | -62.46619 | 20977 ft | 307 kts | 126° |
| 2026-04-11 22:36 | -32.49889 | -62.44628 | 20980 ft | 307 kts | 126° |
| 2026-04-11 22:37 | -32.51196 | -62.42646 | 20982 ft | 307 kts | 126° |
| 2026-04-11 22:37 | -32.52507 | -62.40656 | 20984 ft | 307 kts | 126° |
| 2026-04-11 22:37 | -32.53820 | -62.38662 | 20986 ft | 307 kts | 126° |
| 2026-04-11 22:37 | -32.55125 | -62.36676 | 20987 ft | 307 kts | 126° |
| 2026-04-11 22:38 | -32.56444 | -62.34671 | 20986 ft | 307 kts | 126° |
| 2026-04-11 22:38 | -32.57748 | -62.32687 | 20982 ft | 307 kts | 126° |
| 2026-04-11 22:38 | -32.59061 | -62.30688 | 20982 ft | 307 kts | 126° |
| 2026-04-11 22:38 | -32.60377 | -62.28682 | 20982 ft | 307 kts | 126° |
| 2026-04-11 22:39 | -32.61686 | -62.26687 | 20982 ft | 307 kts | 126° |
| 2026-04-11 22:39 | -32.62992 | -62.24697 | 20982 ft | 307 kts | 126° |
| 2026-04-11 22:39 | -32.64306 | -62.22692 | 20983 ft | 306 kts | 126° |
| 2026-04-11 22:39 | -32.65614 | -62.20695 | 20983 ft | 307 kts | 126° |
| 2026-04-11 22:40 | -32.66932 | -62.18680 | 20983 ft | 307 kts | 126° |
| 2026-04-11 22:40 | -32.68254 | -62.16645 | 20986 ft | 312 kts | 124° |
| 2026-04-11 22:40 | -32.69534 | -62.14517 | 20986 ft | 315 kts | 123° |
| 2026-04-11 22:40 | -32.70727 | -62.12486 | 20986 ft | 317 kts | 122° |
| 2026-04-11 22:41 | -32.71990 | -62.10323 | 20985 ft | 319 kts | 122° |
| 2026-04-11 22:41 | -32.73250 | -62.08161 | 20985 ft | 320 kts | 122° |
| 2026-04-11 22:41 | -32.74524 | -62.05973 | 20985 ft | 321 kts | 122° |
| 2026-04-11 22:41 | -32.75811 | -62.03762 | 20985 ft | 321 kts | 122° |
| 2026-04-11 22:42 | -32.77072 | -62.01592 | 20985 ft | 321 kts | 122° |
| 2026-04-11 22:42 | -32.78342 | -61.99408 | 20985 ft | 322 kts | 122° |
| 2026-04-11 22:42 | -32.79616 | -61.97215 | 20985 ft | 322 kts | 122° |
| 2026-04-11 22:43 | -32.82158 | -61.92837 | 20986 ft | 322 kts | 122° |
| 2026-04-11 22:43 | -32.83433 | -61.90638 | 20986 ft | 322 kts | 122° |
| 2026-04-11 22:43 | -32.84712 | -61.88432 | 20986 ft | 322 kts | 122° |
| 2026-04-11 22:43 | -32.85986 | -61.86232 | 20987 ft | 322 kts | 122° |
| 2026-04-11 22:44 | -32.87246 | -61.84056 | 20987 ft | 322 kts | 122° |
| 2026-04-11 22:44 | -32.88520 | -61.81853 | 20987 ft | 322 kts | 122° |
| 2026-04-11 22:44 | -32.89796 | -61.79647 | 20987 ft | 322 kts | 122° |
| 2026-04-11 22:44 | -32.91059 | -61.77461 | 20987 ft | 322 kts | 122° |
| 2026-04-11 22:45 | -32.92344 | -61.75235 | 20988 ft | 323 kts | 122° |
| 2026-04-11 22:45 | -32.93611 | -61.73041 | 20988 ft | 323 kts | 122° |
| 2026-04-11 22:45 | -32.94882 | -61.70837 | 20988 ft | 323 kts | 122° |
| 2026-04-11 22:45 | -32.96150 | -61.68638 | 20988 ft | 323 kts | 122° |
| 2026-04-11 22:46 | -32.97414 | -61.66444 | 20989 ft | 322 kts | 122° |
| 2026-04-11 22:46 | -32.98687 | -61.64233 | 20989 ft | 322 kts | 122° |
| 2026-04-11 22:46 | -32.99945 | -61.62046 | 20989 ft | 321 kts | 122° |
| 2026-04-11 22:46 | -33.01196 | -61.59872 | 20989 ft | 320 kts | 122° |
| 2026-04-11 22:47 | -33.02464 | -61.57666 | 20989 ft | 318 kts | 122° |
| 2026-04-11 22:47 | -33.03699 | -61.55515 | 20988 ft | 317 kts | 122° |
| 2026-04-11 22:47 | -33.04940 | -61.53353 | 20988 ft | 316 kts | 123° |
| 2026-04-11 22:47 | -33.06186 | -61.51182 | 20988 ft | 314 kts | 123° |
| 2026-04-11 22:48 | -33.07411 | -61.49044 | 20988 ft | 313 kts | 123° |
| 2026-04-11 22:48 | -33.08640 | -61.46901 | 20988 ft | 312 kts | 123° |
| 2026-04-11 22:48 | -33.09844 | -61.44798 | 20988 ft | 310 kts | 123° |
| 2026-04-11 22:48 | -33.11056 | -61.42682 | 20983 ft | 309 kts | 123° |
| 2026-04-11 22:49 | -33.12266 | -61.40566 | 20982 ft | 307 kts | 123° |
| 2026-04-11 22:49 | -33.13470 | -61.38464 | 20982 ft | 306 kts | 123° |
| 2026-04-11 22:49 | -33.14664 | -61.36374 | 20982 ft | 305 kts | 123° |
| 2026-04-11 22:49 | -33.15854 | -61.34295 | 20981 ft | 305 kts | 122° |
| 2026-04-11 22:50 | -33.17048 | -61.32204 | 20980 ft | 304 kts | 122° |
| 2026-04-11 22:50 | -33.18227 | -61.30136 | 20980 ft | 304 kts | 122° |
| 2026-04-11 22:50 | -33.19420 | -61.28045 | 20980 ft | 304 kts | 122° |
| 2026-04-11 22:50 | -33.20606 | -61.25963 | 20980 ft | 304 kts | 122° |
| 2026-04-11 22:51 | -33.21796 | -61.23873 | 20981 ft | 304 kts | 122° |
| 2026-04-11 22:51 | -33.22980 | -61.21793 | 20981 ft | 303 kts | 122° |
| 2026-04-11 22:51 | -33.24178 | -61.19688 | 20981 ft | 303 kts | 122° |
| 2026-04-11 22:51 | -33.25366 | -61.17598 | 20981 ft | 304 kts | 122° |
| 2026-04-11 22:52 | -33.26557 | -61.15503 | 20981 ft | 304 kts | 122° |
| 2026-04-11 22:52 | -33.27738 | -61.13425 | 20981 ft | 304 kts | 122° |
| 2026-04-11 22:52 | -33.28934 | -61.11320 | 20981 ft | 305 kts | 122° |
| 2026-04-11 22:52 | -33.30125 | -61.09219 | 20981 ft | 305 kts | 122° |
| 2026-04-11 22:53 | -33.31315 | -61.07121 | 20981 ft | 306 kts | 122° |
| 2026-04-11 22:53 | -33.32506 | -61.05018 | 20982 ft | 306 kts | 122° |
| 2026-04-11 22:53 | -33.33704 | -61.02904 | 20982 ft | 307 kts | 122° |
| 2026-04-11 22:53 | -33.34900 | -61.00791 | 20982 ft | 307 kts | 122° |
| 2026-04-11 22:54 | -33.36090 | -60.98687 | 20982 ft | 308 kts | 122° |
| 2026-04-11 22:54 | -33.37298 | -60.96550 | 20982 ft | 308 kts | 122° |
| 2026-04-11 22:54 | -33.38490 | -60.94440 | 20982 ft | 309 kts | 122° |
| 2026-04-11 22:54 | -33.39693 | -60.92310 | 20983 ft | 309 kts | 122° |
| 2026-04-11 22:55 | -33.42094 | -60.88053 | 20983 ft | 309 kts | 122° |
| 2026-04-11 22:55 | -33.43292 | -60.85929 | 20983 ft | 310 kts | 122° |
| 2026-04-11 22:55 | -33.44509 | -60.83768 | 20983 ft | 310 kts | 122° |
| 2026-04-11 22:56 | -33.45699 | -60.81656 | 20983 ft | 310 kts | 122° |
| 2026-04-11 22:56 | -33.46913 | -60.79499 | 20983 ft | 310 kts | 122° |
| 2026-04-11 22:56 | -33.48114 | -60.77362 | 20983 ft | 310 kts | 122° |
| 2026-04-11 22:56 | -33.49317 | -60.75223 | 20984 ft | 310 kts | 122° |
| 2026-04-11 22:57 | -33.50511 | -60.73098 | 20984 ft | 310 kts | 122° |
| 2026-04-11 22:57 | -33.51717 | -60.70950 | 20984 ft | 310 kts | 122° |
| 2026-04-11 22:57 | -33.52906 | -60.68831 | 20984 ft | 310 kts | 122° |
| 2026-04-11 22:57 | -33.54118 | -60.66671 | 20984 ft | 310 kts | 122° |
| 2026-04-11 22:58 | -33.55307 | -60.64548 | 20984 ft | 310 kts | 122° |
| 2026-04-11 22:58 | -33.56521 | -60.62381 | 20985 ft | 310 kts | 122° |
| 2026-04-11 22:58 | -33.57719 | -60.60241 | 20985 ft | 310 kts | 122° |
| 2026-04-11 22:58 | -33.58928 | -60.58081 | 20985 ft | 310 kts | 122° |
| 2026-04-11 22:59 | -33.59493 | -60.57070 | 20985 ft | 310 kts | 122° |
| 2026-04-11 22:59 | -33.60690 | -60.54930 | 20985 ft | 310 kts | 122° |
| 2026-04-11 22:59 | -33.61900 | -60.52763 | 20985 ft | 310 kts | 122° |
| 2026-04-11 22:59 | -33.63107 | -60.50602 | 20985 ft | 310 kts | 122° |
| 2026-04-11 23:00 | -33.64304 | -60.48457 | 20986 ft | 310 kts | 122° |
| 2026-04-11 23:00 | -33.65510 | -60.46294 | 20986 ft | 310 kts | 122° |
| 2026-04-11 23:00 | -33.66708 | -60.44144 | 20986 ft | 310 kts | 122° |
| 2026-04-11 23:00 | -33.67910 | -60.41986 | 20986 ft | 310 kts | 122° |
| 2026-04-11 23:01 | -33.69109 | -60.39834 | 20986 ft | 310 kts | 122° |
| 2026-04-11 23:01 | -33.70300 | -60.37692 | 20986 ft | 310 kts | 122° |
| 2026-04-11 23:01 | -33.71487 | -60.35558 | 20987 ft | 310 kts | 122° |
| 2026-04-11 23:01 | -33.72695 | -60.33385 | 20983 ft | 310 kts | 121° |
| 2026-04-11 23:02 | -33.73894 | -60.31227 | 20983 ft | 310 kts | 121° |
| 2026-04-11 23:02 | -33.75095 | -60.29063 | 20983 ft | 310 kts | 121° |
| 2026-04-11 23:02 | -33.76302 | -60.26886 | 20983 ft | 310 kts | 121° |
| 2026-04-11 23:02 | -33.77511 | -60.24706 | 20983 ft | 310 kts | 121° |
| 2026-04-11 23:03 | -33.78698 | -60.22564 | 20984 ft | 310 kts | 121° |
| 2026-04-11 23:03 | -33.79919 | -60.20358 | 20984 ft | 310 kts | 121° |
| 2026-04-11 23:03 | -33.81105 | -60.18215 | 20984 ft | 310 kts | 121° |
| 2026-04-11 23:03 | -33.82306 | -60.16043 | 20984 ft | 310 kts | 121° |
| 2026-04-11 23:04 | -33.83499 | -60.13886 | 20984 ft | 310 kts | 121° |
| 2026-04-11 23:04 | -33.84710 | -60.11716 | 20984 ft | 310 kts | 122° |
| 2026-04-11 23:04 | -33.85946 | -60.09509 | 20984 ft | 310 kts | 122° |
| 2026-04-11 23:04 | -33.87152 | -60.07350 | 20984 ft | 310 kts | 122° |
| 2026-04-11 23:05 | -33.88356 | -60.05197 | 20985 ft | 310 kts | 122° |
| 2026-04-11 23:05 | -33.89574 | -60.03019 | 20985 ft | 310 kts | 122° |
| 2026-04-11 23:05 | -33.90780 | -60.00864 | 20985 ft | 310 kts | 122° |
| 2026-04-11 23:05 | -33.91980 | -59.98714 | 20986 ft | 310 kts | 122° |
| 2026-04-11 23:06 | -33.93183 | -59.96559 | 20941 ft | 312 kts | 122° |
| 2026-04-11 23:06 | -33.94394 | -59.94394 | 20701 ft | 306 kts | 122° |
| 2026-04-11 23:06 | -33.95560 | -59.92303 | 20475 ft | 299 kts | 122° |
| 2026-04-11 23:06 | -33.96714 | -59.90230 | 20250 ft | 294 kts | 122° |
| 2026-04-11 23:07 | -33.97852 | -59.88186 | 20026 ft | 291 kts | 122° |
| 2026-04-11 23:07 | -33.98964 | -59.86165 | 19805 ft | 288 kts | 121° |
| 2026-04-11 23:07 | -34.00057 | -59.84157 | 19585 ft | 287 kts | 121° |
| 2026-04-11 23:07 | -34.01141 | -59.82162 | 19366 ft | 285 kts | 121° |
| 2026-04-11 23:08 | -34.02238 | -59.80141 | 19144 ft | 284 kts | 121° |
| 2026-04-11 23:08 | -34.03310 | -59.78162 | 18926 ft | 283 kts | 121° |
| 2026-04-11 23:08 | -34.04381 | -59.76185 | 18707 ft | 282 kts | 121° |
| 2026-04-11 23:08 | -34.05456 | -59.74198 | 18487 ft | 281 kts | 121° |
| 2026-04-11 23:09 | -34.06533 | -59.72210 | 18267 ft | 280 kts | 121° |
| 2026-04-11 23:09 | -34.07589 | -59.70258 | 18050 ft | 280 kts | 121° |
| 2026-04-11 23:09 | -34.08658 | -59.68280 | 17830 ft | 279 kts | 121° |
| 2026-04-11 23:09 | -34.09711 | -59.66329 | 17612 ft | 278 kts | 121° |
| 2026-04-11 23:10 | -34.10762 | -59.64383 | 17389 ft | 278 kts | 121° |
| 2026-04-11 23:10 | -34.11824 | -59.62415 | 17161 ft | 277 kts | 121° |
| 2026-04-11 23:10 | -34.12870 | -59.60475 | 16936 ft | 277 kts | 121° |
| 2026-04-11 23:10 | -34.13921 | -59.58527 | 16710 ft | 276 kts | 121° |
| 2026-04-11 23:11 | -34.14964 | -59.56589 | 16484 ft | 276 kts | 121° |
| 2026-04-11 23:11 | -34.16025 | -59.54620 | 16255 ft | 275 kts | 121° |
| 2026-04-11 23:11 | -34.17064 | -59.52688 | 16030 ft | 274 kts | 121° |
| 2026-04-11 23:11 | -34.18100 | -59.50764 | 15805 ft | 274 kts | 121° |
| 2026-04-11 23:12 | -34.19131 | -59.48844 | 15581 ft | 273 kts | 121° |
| 2026-04-11 23:12 | -34.20172 | -59.46908 | 15354 ft | 273 kts | 121° |
| 2026-04-11 23:12 | -34.21194 | -59.45005 | 15131 ft | 272 kts | 121° |
| 2026-04-11 23:12 | -34.22239 | -59.43058 | 14903 ft | 272 kts | 121° |
| 2026-04-11 23:13 | -34.23238 | -59.41196 | 14684 ft | 271 kts | 121° |
| 2026-04-11 23:13 | -34.24240 | -59.39297 | 14446 ft | 260 kts | 120° |
| 2026-04-11 23:13 | -34.25167 | -59.37513 | 14208 ft | 249 kts | 120° |
| 2026-04-11 23:13 | -34.26078 | -59.35775 | 13971 ft | 240 kts | 120° |
| 2026-04-11 23:14 | -34.26959 | -59.34100 | 13735 ft | 233 kts | 120° |
| 2026-04-11 23:14 | -34.27820 | -59.32472 | 13499 ft | 223 kts | 120° |
| 2026-04-11 23:14 | -34.28603 | -59.31040 | 13223 ft | 191 kts | 122° |
| 2026-04-11 23:14 | -34.29308 | -59.29777 | 12958 ft | 169 kts | 121° |
| 2026-04-11 23:15 | -34.29917 | -59.28666 | 12630 ft | 142 kts | 121° |
| 2026-04-11 23:15 | -34.30367 | -59.27875 | 11922 ft | 122 kts | 122° |
| 2026-04-11 23:15 | -34.30754 | -59.27191 | 10987 ft | 132 kts | 121° |
| 2026-04-11 23:15 | -34.31384 | -59.26185 | 10010 ft | 165 kts | 125° |
| 2026-04-11 23:16 | -34.32129 | -59.25000 | 9986 ft | 181 kts | 123° |
| 2026-04-11 23:16 | -34.32834 | -59.23718 | 10387 ft | 178 kts | 122° |
| 2026-04-11 23:16 | -34.33535 | -59.22438 | 10367 ft | 197 kts | 122° |
| 2026-04-11 23:16 | -34.34307 | -59.21021 | 10166 ft | 205 kts | 122° |
| 2026-04-11 23:17 | -34.35108 | -59.19537 | 9942 ft | 212 kts | 122° |
| 2026-04-11 23:17 | -34.35928 | -59.18015 | 9672 ft | 220 kts | 122° |
| 2026-04-11 23:17 | -34.36779 | -59.16442 | 9400 ft | 224 kts | 122° |
| 2026-04-11 23:17 | -34.37640 | -59.14852 | 9127 ft | 227 kts | 122° |
| 2026-04-11 23:18 | -34.38501 | -59.13226 | 8851 ft | 229 kts | 121° |
| 2026-04-11 23:18 | -34.39360 | -59.11590 | 8574 ft | 230 kts | 121° |
| 2026-04-11 23:18 | -34.40226 | -59.09939 | 8296 ft | 231 kts | 121° |
| 2026-04-11 23:18 | -34.41074 | -59.08318 | 8023 ft | 231 kts | 121° |
| 2026-04-11 23:19 | -34.41936 | -59.06673 | 7746 ft | 231 kts | 121° |
| 2026-04-11 23:19 | -34.42806 | -59.05013 | 7467 ft | 231 kts | 122° |
| 2026-04-11 23:19 | -34.43669 | -59.03363 | 7188 ft | 231 kts | 121° |
| 2026-04-11 23:19 | -34.44516 | -59.01745 | 6822 ft | 230 kts | 121° |
| 2026-04-11 23:20 | -34.45364 | -59.00067 | 6312 ft | 232 kts | 120° |
| 2026-04-11 23:20 | -34.46217 | -58.98398 | 5814 ft | 234 kts | 121° |
| 2026-04-11 23:20 | -34.47071 | -58.96750 | 5321 ft | 234 kts | 121° |
| 2026-04-11 23:20 | -34.47949 | -58.95064 | 4817 ft | 234 kts | 121° |
| 2026-04-11 23:21 | -34.48809 | -58.93415 | 4323 ft | 234 kts | 121° |
| 2026-04-11 23:21 | -34.49677 | -58.91750 | 3823 ft | 234 kts | 121° |
| 2026-04-11 23:21 | -34.50547 | -58.90080 | 3320 ft | 231 kts | 121° |
| 2026-04-11 23:21 | -34.51356 | -58.88529 | 3056 ft | 204 kts | 121° |
| 2026-04-11 23:22 | -34.52038 | -58.87220 | 3018 ft | 177 kts | 121° |
| 2026-04-11 23:22 | -34.52663 | -58.86018 | 3027 ft | 164 kts | 120° |
| 2026-04-11 23:22 | -34.53283 | -58.84816 | 3039 ft | 169 kts | 120° |
| 2026-04-11 23:22 | -34.53921 | -58.83586 | 3040 ft | 173 kts | 121° |
| 2026-04-11 23:23 | -34.54579 | -58.82321 | 3040 ft | 176 kts | 121° |
| 2026-04-11 23:23 | -34.55236 | -58.81056 | 3039 ft | 178 kts | 121° |
| 2026-04-11 23:23 | -34.55862 | -58.79757 | 3030 ft | 179 kts | 108° |
| 2026-04-11 23:23 | -34.56067 | -58.78269 | 3042 ft | 178 kts | 91° |
| 2026-04-11 23:24 | -34.56074 | -58.76749 | 3040 ft | 178 kts | 87° |
| 2026-04-11 23:24 | -34.56020 | -58.75237 | 2876 ft | 184 kts | 85° |
| 2026-04-11 23:24 | -34.55938 | -58.73651 | 2660 ft | 190 kts | 85° |
| 2026-04-11 23:24 | -34.55809 | -58.72065 | 2547 ft | 187 kts | 73° |
| 2026-04-11 23:25 | -34.55155 | -58.70734 | 2549 ft | 179 kts | 50° |
| 2026-04-11 23:25 | -34.54337 | -58.69625 | 2545 ft | 175 kts | 46° |
| 2026-04-11 23:25 | -34.53490 | -58.68568 | 2540 ft | 174 kts | 45° |
| 2026-04-11 23:25 | -34.52668 | -58.67561 | 2200 ft | 164 kts | 45° |
| 2026-04-11 23:26 | -34.51880 | -58.66633 | 1847 ft | 156 kts | 44° |
| 2026-04-11 23:26 | -34.51110 | -58.65729 | 1552 ft | 152 kts | 45° |
| 2026-04-11 23:26 | -34.50336 | -58.64820 | 1298 ft | 153 kts | 45° |
| 2026-04-11 23:26 | -34.49571 | -58.63929 | 1066 ft | 153 kts | 46° |
| 2026-04-11 23:27 | -34.48807 | -58.63025 | 846 ft | 153 kts | 46° |
| 2026-04-11 23:27 | -34.48033 | -58.62111 | 631 ft | 152 kts | 46° |
| 2026-04-11 23:27 | -34.47270 | -58.61218 | 437 ft | 150 kts | 46° |
| 2026-04-11 23:27 | -34.46528 | -58.60344 | 205 ft | 148 kts | 46° |
| 2026-04-11 23:28 | -34.45828 | -58.59527 | 28 ft | 127 kts | 47° |
| 2026-04-11 23:28 | -34.45330 | -58.58952 | 13 ft | 60 kts | 43° |
| 2026-04-11 23:28 | -34.45164 | -58.58721 | 14 ft | 58 kts | 28° |
| 2026-04-11 23:28 | -34.44965 | -58.58518 | 13 ft | 25 kts | 44° |
| 2026-04-11 23:29 | -34.44871 | -58.58405 | 13 ft | 13 kts | 45° |
| 2026-04-11 23:29 | -34.44862 | -58.58326 | 13 ft | 8 kts | 115° |
| 2026-04-11 23:29 | -34.44955 | -58.58241 | 13 ft | 31 kts | 147° |
| 2026-04-11 23:29 | -34.45194 | -58.58067 | 13 ft | 38 kts | 150° |
| 2026-04-11 23:30 | -34.45335 | -58.57994 | 13 ft | 12 kts | 232° |
| 2026-04-11 23:30 | -34.45472 | -58.58309 | 13 ft | 28 kts | 239° |
| 2026-04-11 23:30 | -34.45523 | -58.58393 | 13 ft | 0 kts | 154° |
| 2026-04-11 23:30 | -34.45543 | -58.58380 | 13 ft | 0 kts | 152° |